OEPAM LOWW-LOWW
Flight info
| Callsign | OEPAM |
|---|---|
| Flight time | 0h 4m |
| Altitude | 2600 |
| Route | LOWW LOWW |
| Aircraft | DA40/L-SBDGRY/S |
Departure
| Time | 2026-04-25 17:27 |
|---|---|
| Airport | Vienna International Airport (LOWW) |
Arrival
| Time | 2026-04-25 17:31 |
|---|---|
| Airport | Vienna International Airport (LOWW) |
| Time | Latitude | Longitude | Altitude | Speed | Heading |
|---|---|---|---|---|---|
| 2026-04-25 17:13 | 48.12562 | 16.53582 | 604 ft | 0 kts | 296° |
| 2026-04-25 17:22 | 48.12575 | 16.53541 | 608 ft | 11 kts | 289° |
| 2026-04-25 17:22 | 48.12493 | 16.53504 | 604 ft | 16 kts | 185° |
| 2026-04-25 17:23 | 48.12411 | 16.53582 | 606 ft | 20 kts | 117° |
| 2026-04-25 17:23 | 48.12339 | 16.53805 | 604 ft | 28 kts | 115° |
| 2026-04-25 17:23 | 48.12248 | 16.54085 | 609 ft | 26 kts | 115° |
| 2026-04-25 17:23 | 48.12158 | 16.54343 | 604 ft | 30 kts | 118° |
| 2026-04-25 17:24 | 48.12071 | 16.54627 | 608 ft | 29 kts | 116° |
| 2026-04-25 17:24 | 48.11985 | 16.54892 | 610 ft | 29 kts | 116° |
| 2026-04-25 17:24 | 48.11916 | 16.55106 | 612 ft | 15 kts | 116° |
| 2026-04-25 17:24 | 48.11840 | 16.55124 | 604 ft | 9 kts | 209° |
| 2026-04-25 17:25 | 48.11831 | 16.55110 | 611 ft | 0 kts | 236° |
| 2026-04-25 17:25 | 48.11813 | 16.55043 | 615 ft | 14 kts | 254° |
| 2026-04-25 17:25 | 48.11799 | 16.54853 | 604 ft | 20 kts | 277° |
| 2026-04-25 17:26 | 48.11855 | 16.54646 | 608 ft | 28 kts | 296° |
| 2026-04-25 17:26 | 48.12024 | 16.54139 | 688 ft | 69 kts | 295° |
| 2026-04-25 17:26 | 48.12272 | 16.53436 | 878 ft | 81 kts | 294° |
| 2026-04-25 17:26 | 48.12499 | 16.52643 | 1108 ft | 85 kts | 263° |
| 2026-04-25 17:27 | 48.12084 | 16.52019 | 1203 ft | 96 kts | 201° |
| 2026-04-25 17:27 | 48.11453 | 16.51823 | 1332 ft | 92 kts | 192° |
| 2026-04-25 17:27 | 48.10858 | 16.52248 | 1387 ft | 105 kts | 135° |
| 2026-04-25 17:27 | 48.10684 | 16.52523 | 1389 ft | 108 kts | 136° |
| 2026-04-25 17:28 | 48.09755 | 16.53993 | 1414 ft | 119 kts | 137° |
| 2026-04-25 17:28 | 48.09164 | 16.54884 | 1453 ft | 122 kts | 138° |
| 2026-04-25 17:28 | 48.08567 | 16.55789 | 1481 ft | 123 kts | 141° |
| 2026-04-25 17:28 | 48.07923 | 16.56569 | 1400 ft | 114 kts | 146° |
| 2026-04-25 17:29 | 48.07374 | 16.57269 | 1359 ft | 92 kts | 142° |
| 2026-04-25 17:29 | 48.07023 | 16.58008 | 1210 ft | 88 kts | 105° |
| 2026-04-25 17:29 | 48.07029 | 16.58872 | 1028 ft | 82 kts | 76° |
| 2026-04-25 17:29 | 48.07207 | 16.59614 | 954 ft | 80 kts | 45° |
| 2026-04-25 17:30 | 48.07653 | 16.59737 | 875 ft | 63 kts | 322° |
| 2026-04-25 17:30 | 48.08029 | 16.59503 | 809 ft | 57 kts | 328° |
| 2026-04-25 17:30 | 48.08454 | 16.59308 | 746 ft | 64 kts | 335° |
| 2026-04-25 17:30 | 48.08869 | 16.59127 | 648 ft | 57 kts | 332° |
| 2026-04-25 17:31 | 48.09214 | 16.58979 | 613 ft | 45 kts | 340° |
| 2026-04-25 17:31 | 48.09491 | 16.58867 | 604 ft | 43 kts | 342° |
| 2026-04-25 17:31 | 48.09893 | 16.58690 | 720 ft | 74 kts | 339° |
| 2026-04-25 17:31 | 48.10453 | 16.58488 | 863 ft | 89 kts | 335° |
| 2026-04-25 17:32 | 48.11068 | 16.58194 | 1015 ft | 99 kts | 336° |
| 2026-04-25 17:32 | 48.11738 | 16.57893 | 1205 ft | 102 kts | 340° |
| 2026-04-25 17:32 | 48.12461 | 16.57758 | 1371 ft | 110 kts | 359° |
| 2026-04-25 17:32 | 48.13137 | 16.58416 | 1487 ft | 132 kts | 54° |
| 2026-04-25 17:33 | 48.13324 | 16.59802 | 1603 ft | 138 kts | 86° |
| 2026-04-25 17:33 | 48.12923 | 16.60962 | 1820 ft | 127 kts | 155° |
| 2026-04-25 17:33 | 48.12073 | 16.61368 | 1736 ft | 127 kts | 176° |
| 2026-04-25 17:33 | 48.11174 | 16.61607 | 1543 ft | 135 kts | 178° |
| 2026-04-25 17:34 | 48.10251 | 16.61790 | 1436 ft | 129 kts | 181° |
| 2026-04-25 17:34 | 48.09433 | 16.61955 | 1433 ft | 110 kts | 182° |
| 2026-04-25 17:34 | 48.08694 | 16.62012 | 1416 ft | 104 kts | 188° |
| 2026-04-25 17:34 | 48.07993 | 16.62011 | 1384 ft | 98 kts | 191° |
| 2026-04-25 17:35 | 48.07339 | 16.61954 | 1361 ft | 91 kts | 195° |
| 2026-04-25 17:35 | 48.06787 | 16.61616 | 1251 ft | 84 kts | 236° |
| 2026-04-25 17:35 | 48.06650 | 16.61122 | 1154 ft | 75 kts | 270° |
| 2026-04-25 17:35 | 48.06862 | 16.60265 | 1046 ft | 59 kts | 301° |
| 2026-04-25 17:36 | 48.07164 | 16.59897 | 950 ft | 57 kts | 322° |
| 2026-04-25 17:36 | 48.07525 | 16.59703 | 863 ft | 54 kts | 331° |
| 2026-04-25 17:36 | 48.07758 | 16.59590 | 823 ft | 52 kts | 329° |
| 2026-04-25 17:36 | 48.08152 | 16.59452 | 791 ft | 67 kts | 334° |
| 2026-04-25 17:37 | 48.08593 | 16.59248 | 711 ft | 65 kts | 334° |
| 2026-04-25 17:37 | 48.08996 | 16.59079 | 624 ft | 55 kts | 332° |
| 2026-04-25 17:37 | 48.09335 | 16.58939 | 615 ft | 44 kts | 342° |
| 2026-04-25 17:37 | 48.09699 | 16.58773 | 680 ft | 70 kts | 330° |
| 2026-04-25 17:38 | 48.10223 | 16.58844 | 898 ft | 88 kts | 27° |
| 2026-04-25 17:38 | 48.10493 | 16.59387 | 1031 ft | 105 kts | 65° |
| 2026-04-25 17:38 | 48.10055 | 16.60519 | 1276 ft | 111 kts | 172° |
| 2026-04-25 17:38 | 48.09191 | 16.60789 | 1156 ft | 136 kts | 173° |
| 2026-04-25 17:39 | 48.08328 | 16.60910 | 1101 ft | 109 kts | 186° |
| 2026-04-25 17:39 | 48.07677 | 16.60950 | 1114 ft | 79 kts | 187° |
| 2026-04-25 17:39 | 48.07276 | 16.60762 | 1048 ft | 52 kts | 245° |
| 2026-04-25 17:39 | 48.07240 | 16.60255 | 946 ft | 48 kts | 282° |
| 2026-04-25 17:40 | 48.07463 | 16.59832 | 934 ft | 71 kts | 314° |
| 2026-04-25 17:40 | 48.07964 | 16.59536 | 835 ft | 72 kts | 334° |
| 2026-04-25 17:40 | 48.08401 | 16.59338 | 735 ft | 61 kts | 332° |
| 2026-04-25 17:40 | 48.08778 | 16.59170 | 658 ft | 52 kts | 333° |
| 2026-04-25 17:41 | 48.09098 | 16.59034 | 611 ft | 44 kts | 327° |
| 2026-04-25 17:41 | 48.09405 | 16.58909 | 678 ft | 55 kts | 333° |
| 2026-04-25 17:41 | 48.09859 | 16.58726 | 799 ft | 79 kts | 334° |
| 2026-04-25 17:41 | 48.10443 | 16.58469 | 941 ft | 95 kts | 341° |
| 2026-04-25 17:42 | 48.11099 | 16.58219 | 1132 ft | 98 kts | 338° |
| 2026-04-25 17:42 | 48.11768 | 16.57934 | 1309 ft | 103 kts | 335° |
| 2026-04-25 17:42 | 48.12467 | 16.57818 | 1517 ft | 109 kts | 18° |
| 2026-04-25 17:42 | 48.12823 | 16.58848 | 1571 ft | 124 kts | 83° |
| 2026-04-25 17:43 | 48.12527 | 16.60118 | 1428 ft | 134 kts | 136° |
| 2026-04-25 17:43 | 48.11728 | 16.60632 | 1398 ft | 126 kts | 172° |
| 2026-04-25 17:43 | 48.10912 | 16.60904 | 1396 ft | 114 kts | 175° |
| 2026-04-25 17:43 | 48.10220 | 16.61095 | 1399 ft | 90 kts | 182° |
| 2026-04-25 17:44 | 48.09617 | 16.61157 | 1389 ft | 84 kts | 195° |
| 2026-04-25 17:44 | 48.09095 | 16.60913 | 1391 ft | 69 kts | 233° |
| 2026-04-25 17:44 | 48.08851 | 16.60296 | 1336 ft | 76 kts | 258° |
| 2026-04-25 17:44 | 48.08782 | 16.59446 | 1252 ft | 88 kts | 274° |
| 2026-04-25 17:45 | 48.08845 | 16.58525 | 1253 ft | 91 kts | 285° |
| 2026-04-25 17:45 | 48.08963 | 16.57913 | 1288 ft | 88 kts | 288° |
| 2026-04-25 17:45 | 48.09278 | 16.56786 | 1320 ft | 89 kts | 295° |
| 2026-04-25 17:45 | 48.09569 | 16.55978 | 1350 ft | 87 kts | 293° |
| 2026-04-25 17:46 | 48.09811 | 16.55101 | 1303 ft | 93 kts | 292° |
| 2026-04-25 17:46 | 48.09957 | 16.54196 | 1358 ft | 90 kts | 274° |
| 2026-04-25 17:46 | 48.09955 | 16.53256 | 1372 ft | 92 kts | 272° |
| 2026-04-25 17:46 | 48.09932 | 16.52266 | 1322 ft | 100 kts | 260° |
| 2026-04-25 17:47 | 48.09721 | 16.51261 | 1305 ft | 101 kts | 257° |
| 2026-04-25 17:47 | 48.09521 | 16.50257 | 1300 ft | 101 kts | 258° |
| 2026-04-25 17:47 | 48.09335 | 16.49279 | 1302 ft | 98 kts | 258° |
| 2026-04-25 17:47 | 48.09158 | 16.48294 | 1295 ft | 98 kts | 260° |
| 2026-04-25 17:48 | 48.08790 | 16.46355 | 1308 ft | 97 kts | 261° |
| 2026-04-25 17:48 | 48.08630 | 16.45368 | 1325 ft | 100 kts | 260° |
| 2026-04-25 17:48 | 48.08476 | 16.44357 | 1369 ft | 97 kts | 263° |
| 2026-04-25 17:49 | 48.08331 | 16.43330 | 1328 ft | 102 kts | 264° |
| 2026-04-25 17:49 | 48.08258 | 16.42286 | 1233 ft | 103 kts | 270° |
| 2026-04-25 17:49 | 48.08248 | 16.41192 | 1164 ft | 105 kts | 273° |
| 2026-04-25 17:49 | 48.08138 | 16.40158 | 1206 ft | 103 kts | 246° |
| 2026-04-25 17:50 | 48.07590 | 16.39479 | 1235 ft | 105 kts | 207° |
| 2026-04-25 17:50 | 48.06885 | 16.39136 | 1214 ft | 107 kts | 204° |
| 2026-04-25 17:50 | 48.06128 | 16.39022 | 1236 ft | 110 kts | 188° |
| 2026-04-25 17:50 | 48.05376 | 16.38860 | 1232 ft | 109 kts | 202° |
| 2026-04-25 17:51 | 48.04644 | 16.38556 | 1276 ft | 107 kts | 203° |
| 2026-04-25 17:51 | 48.03925 | 16.38237 | 1257 ft | 108 kts | 205° |
| 2026-04-25 17:51 | 48.03190 | 16.37906 | 1291 ft | 114 kts | 205° |
| 2026-04-25 17:51 | 48.02428 | 16.37583 | 1447 ft | 119 kts | 189° |
| 2026-04-25 17:52 | 48.01580 | 16.37854 | 1595 ft | 132 kts | 167° |
| 2026-04-25 17:52 | 48.01005 | 16.38329 | 1633 ft | 143 kts | 151° |
| 2026-04-25 17:52 | 47.99957 | 16.39469 | 1857 ft | 138 kts | 149° |
| 2026-04-25 17:52 | 47.99167 | 16.40312 | 1951 ft | 141 kts | 150° |
| 2026-04-25 17:53 | 47.98329 | 16.41131 | 1998 ft | 145 kts | 152° |
| 2026-04-25 17:53 | 47.97496 | 16.41907 | 2211 ft | 136 kts | 154° |
| 2026-04-25 17:53 | 47.96669 | 16.42587 | 2331 ft | 139 kts | 156° |
| 2026-04-25 17:53 | 47.95816 | 16.43328 | 2383 ft | 144 kts | 155° |
| 2026-04-25 17:54 | 47.94964 | 16.44093 | 2494 ft | 142 kts | 149° |
| 2026-04-25 17:54 | 47.94180 | 16.45005 | 2633 ft | 146 kts | 143° |
| 2026-04-25 17:54 | 47.93404 | 16.45999 | 2737 ft | 150 kts | 143° |
| 2026-04-25 17:54 | 47.92613 | 16.47004 | 2832 ft | 151 kts | 136° |
| 2026-04-25 17:55 | 47.91933 | 16.48259 | 2856 ft | 154 kts | 124° |
| 2026-04-25 17:55 | 47.91319 | 16.49533 | 2992 ft | 150 kts | 127° |
| 2026-04-25 17:55 | 47.90708 | 16.50787 | 3107 ft | 149 kts | 127° |
| 2026-04-25 17:55 | 47.90096 | 16.52003 | 3253 ft | 147 kts | 128° |
| 2026-04-25 17:56 | 47.89482 | 16.53218 | 3326 ft | 149 kts | 127° |
| 2026-04-25 17:56 | 47.88878 | 16.54497 | 3321 ft | 153 kts | 127° |
| 2026-04-25 17:56 | 47.88216 | 16.55694 | 3432 ft | 147 kts | 134° |
| 2026-04-25 17:56 | 47.87423 | 16.56702 | 3362 ft | 153 kts | 148° |
| 2026-04-25 17:57 | 47.86468 | 16.57428 | 3270 ft | 153 kts | 168° |
| 2026-04-25 17:57 | 47.85467 | 16.57880 | 3320 ft | 149 kts | 174° |
| 2026-04-25 17:57 | 47.84412 | 16.57988 | 3122 ft | 156 kts | 191° |
| 2026-04-25 17:57 | 47.84064 | 16.57936 | 3101 ft | 153 kts | 194° |
| 2026-04-25 17:58 | 47.82374 | 16.57799 | 3201 ft | 145 kts | 187° |
| 2026-04-25 17:58 | 47.81345 | 16.57866 | 3115 ft | 151 kts | 181° |
| 2026-04-25 17:58 | 47.80314 | 16.58075 | 3141 ft | 148 kts | 178° |
| 2026-04-25 17:58 | 47.79293 | 16.58398 | 3136 ft | 149 kts | 169° |